createdAt,value
2023-03-29T00:02:33.286Z,-1.54
2023-03-29T00:07:55.349Z,-1.60
2023-03-29T00:13:18.072Z,-1.65
2023-03-29T00:18:40.271Z,-1.59
2023-03-29T00:24:02.137Z,-1.64
2023-03-29T00:29:24.051Z,-1.62
2023-03-29T00:34:46.135Z,-1.77
2023-03-29T00:40:09.262Z,-1.69
2023-03-29T00:45:31.175Z,-1.77
2023-03-29T00:50:55.610Z,-1.75
2023-03-29T00:56:26.402Z,-1.79
2023-03-29T01:01:58.036Z,-1.85
2023-03-29T01:07:28.765Z,-1.85
2023-03-29T01:12:56.119Z,-1.94
2023-03-29T01:18:18.311Z,-1.93
2023-03-29T01:23:48.175Z,-2.01
2023-03-29T01:29:14.927Z,-2.03
2023-03-29T01:34:41.415Z,-2.05
2023-03-29T01:40:05.032Z,-2.09
2023-03-29T01:45:35.180Z,-2.16
2023-03-29T01:51:08.734Z,-2.21
2023-03-29T01:56:35.820Z,-2.22
2023-03-29T02:02:01.173Z,-2.25
2023-03-29T02:07:28.356Z,-2.32
2023-03-29T02:12:50.564Z,-2.28
2023-03-29T02:18:16.027Z,-2.38
2023-03-29T02:23:43.188Z,-2.42
2023-03-29T02:29:05.139Z,-2.42
2023-03-29T02:34:34.590Z,-2.41
2023-03-29T02:39:57.500Z,-2.47
2023-03-29T02:45:19.803Z,-2.48
2023-03-29T02:50:44.939Z,-2.52
2023-03-29T02:56:08.552Z,-2.50
2023-03-29T03:01:30.779Z,-2.50
2023-03-29T03:06:52.731Z,-2.49
2023-03-29T03:12:14.599Z,-2.51
2023-03-29T03:17:36.596Z,-2.54
2023-03-29T03:22:58.863Z,-2.56
2023-03-29T03:28:21.672Z,-2.57
2023-03-29T03:33:43.537Z,-2.52
2023-03-29T03:39:05.443Z,-2.64
2023-03-29T03:44:27.249Z,-2.59
2023-03-29T03:49:49.170Z,-2.66
2023-03-29T03:55:11.033Z,-2.65
2023-03-29T04:00:32.856Z,-2.62
2023-03-29T04:05:54.714Z,-2.63
2023-03-29T04:11:16.556Z,-2.54
2023-03-29T04:16:38.435Z,-2.48
2023-03-29T04:22:00.323Z,-2.42
2023-03-29T04:27:22.180Z,-2.32
2023-03-29T04:32:44.092Z,-1.82
2023-03-29T04:38:05.995Z,-1.40
2023-03-29T04:43:27.912Z,-0.08
2023-03-29T04:48:49.786Z,2.56
2023-03-29T04:54:11.665Z,6.76
2023-03-29T04:59:33.784Z,10.59
2023-03-29T05:04:55.728Z,13.17
2023-03-29T05:10:17.602Z,15.03
2023-03-29T05:15:41.216Z,15.82
2023-03-29T05:21:03.660Z,17.18
2023-03-29T05:26:25.755Z,17.58
2023-03-29T05:31:47.658Z,17.29
2023-03-29T05:37:09.520Z,16.64
2023-03-29T05:42:31.352Z,14.38
2023-03-29T05:47:53.185Z,11.99
2023-03-29T05:53:16.102Z,12.11
2023-03-29T05:58:37.935Z,11.98
2023-03-29T06:04:00.210Z,14.81
2023-03-29T06:09:22.386Z,20.20
2023-03-29T06:14:44.270Z,22.11
2023-03-29T06:20:08.891Z,24.32
2023-03-29T06:25:30.734Z,23.70
2023-03-29T06:30:52.623Z,25.81
2023-03-29T06:36:15.186Z,25.04
2023-03-29T06:41:37.080Z,25.74
2023-03-29T06:46:59.119Z,27.12
2023-03-29T06:52:21.005Z,25.52
2023-03-29T06:57:42.848Z,26.31
2023-03-29T07:03:07.408Z,26.38
2023-03-29T07:08:29.378Z,25.34
2023-03-29T07:13:51.225Z,24.61
2023-03-29T07:19:13.046Z,24.92
2023-03-29T07:24:34.945Z,26.02
2023-03-29T07:29:56.785Z,25.19
2023-03-29T07:35:18.930Z,25.17
2023-03-29T07:40:40.963Z,25.32
2023-03-29T07:46:04.922Z,24.79
2023-03-29T07:51:26.819Z,22.48
2023-03-29T07:56:48.673Z,23.68
2023-03-29T08:02:11.144Z,23.27
2023-03-29T08:07:33.020Z,22.00
2023-03-29T08:12:55.367Z,20.31
2023-03-29T08:18:17.407Z,17.50
2023-03-29T08:23:39.210Z,20.18
2023-03-29T08:29:01.076Z,19.29
2023-03-29T08:34:22.917Z,20.37
2023-03-29T08:39:44.735Z,20.35
2023-03-29T08:45:15.220Z,20.16
2023-03-29T08:50:43.739Z,20.08
2023-03-29T08:56:11.046Z,18.60
2023-03-29T09:01:36.234Z,17.08
2023-03-29T09:06:58.240Z,16.45
2023-03-29T09:12:36.484Z,18.12
2023-03-29T09:18:18.631Z,17.02
2023-03-29T09:23:50.662Z,16.78
2023-03-29T09:29:21.602Z,16.99
2023-03-29T09:35:01.009Z,16.37
2023-03-29T09:40:38.214Z,16.25
2023-03-29T09:46:04.587Z,16.37
2023-03-29T09:51:29.952Z,15.57
2023-03-29T09:56:51.855Z,16.55
2023-03-29T10:02:14.471Z,16.84
2023-03-29T10:07:41.688Z,15.53
2023-03-29T10:13:13.553Z,13.30
2023-03-29T10:18:43.188Z,11.28
2023-03-29T10:24:05.762Z,10.42
2023-03-29T10:29:34.782Z,9.90
2023-03-29T10:35:06.879Z,7.90
2023-03-29T10:40:32.001Z,8.15
2023-03-29T10:45:56.614Z,7.42
2023-03-29T10:51:19.394Z,7.02
2023-03-29T10:56:41.230Z,7.67
2023-03-29T11:02:15.269Z,7.52
2023-03-29T11:08:12.421Z,7.43
2023-03-29T11:13:58.033Z,7.28
2023-03-29T11:20:00.924Z,7.35
2023-03-29T11:26:01.434Z,7.38
2023-03-29T11:31:43.101Z,7.29
2023-03-29T11:37:22.793Z,7.27
2023-03-29T11:42:48.656Z,7.58
2023-03-29T11:48:18.714Z,7.16
2023-03-29T11:53:51.108Z,7.24
2023-03-29T11:59:40.724Z,7.29
2023-03-29T12:05:11.645Z,7.71
2023-03-29T12:10:45.140Z,8.03
2023-03-29T12:16:15.242Z,7.78
2023-03-29T12:21:38.041Z,7.59
2023-03-29T12:27:11.871Z,7.73
2023-03-29T12:32:39.645Z,7.91
2023-03-29T12:38:10.542Z,7.80
2023-03-29T12:43:37.254Z,7.82
2023-03-29T12:49:08.395Z,7.51
2023-03-29T12:54:33.814Z,8.24
2023-03-29T12:59:55.898Z,8.24
2023-03-29T13:05:35.912Z,7.92
2023-03-29T13:10:57.873Z,8.04
2023-03-29T13:16:29.181Z,7.99
2023-03-29T13:22:28.397Z,8.09
2023-03-29T13:28:16.779Z,8.12
2023-03-29T13:33:57.741Z,8.30
2023-03-29T13:39:24.306Z,8.43
2023-03-29T13:44:47.451Z,8.53
2023-03-29T13:50:17.488Z,8.50
2023-03-29T13:55:58.837Z,8.45
2023-03-29T14:01:29.466Z,8.64
2023-03-29T14:06:55.155Z,8.66
2023-03-29T14:12:17.653Z,8.73
2023-03-29T14:17:39.541Z,8.79
2023-03-29T14:23:01.482Z,8.56
2023-03-29T14:28:26.356Z,8.55
2023-03-29T14:34:00.358Z,8.86
2023-03-29T14:39:23.505Z,8.94
2023-03-29T14:44:45.548Z,9.05
2023-03-29T14:50:18.091Z,9.02
2023-03-29T14:55:50.505Z,8.89
2023-03-29T15:01:20.537Z,8.87
2023-03-29T15:06:43.495Z,8.72
2023-03-29T15:12:05.755Z,8.68
2023-03-29T15:17:47.639Z,8.41
2023-03-29T15:23:15.583Z,8.52
2023-03-29T15:28:46.935Z,8.44
2023-03-29T15:34:12.277Z,8.41
2023-03-29T15:39:34.399Z,8.33
2023-03-29T15:44:56.371Z,8.53
2023-03-29T15:50:18.258Z,8.40
2023-03-29T15:55:42.725Z,8.47
2023-03-29T16:01:19.580Z,8.37
2023-03-29T16:06:42.366Z,8.53
2023-03-29T16:12:04.362Z,8.53
2023-03-29T16:17:26.187Z,8.44
2023-03-29T16:22:48.683Z,8.44
2023-03-29T16:28:10.670Z,8.34
2023-03-29T16:33:32.578Z,8.28
2023-03-29T16:38:54.414Z,7.95
2023-03-29T16:44:20.939Z,7.97
2023-03-29T16:49:45.830Z,7.88
2023-03-29T16:55:10.233Z,7.85
2023-03-29T17:00:32.137Z,7.62
2023-03-29T17:05:54.276Z,7.62
2023-03-29T17:11:16.358Z,7.61
2023-03-29T17:16:38.370Z,7.52
2023-03-29T17:22:00.422Z,7.63
2023-03-29T17:27:22.472Z,7.62
2023-03-29T17:32:44.441Z,7.59
2023-03-29T17:38:06.315Z,7.43
2023-03-29T17:43:28.557Z,7.40
2023-03-29T17:48:50.507Z,7.29
2023-03-29T17:54:12.635Z,7.22
2023-03-29T17:59:34.513Z,7.16
2023-03-29T18:04:56.349Z,7.25
2023-03-29T18:10:18.298Z,7.25
2023-03-29T18:15:40.172Z,7.24
2023-03-29T18:21:01.994Z,7.23
2023-03-29T18:26:23.975Z,7.26
2023-03-29T18:31:45.975Z,7.23
2023-03-29T18:37:07.903Z,7.26
2023-03-29T18:42:30.305Z,7.27
2023-03-29T18:47:52.258Z,7.21
2023-03-29T18:53:14.519Z,7.24
2023-03-29T18:58:36.665Z,7.18
2023-03-29T19:03:58.770Z,7.23
2023-03-29T19:09:20.639Z,7.18
2023-03-29T19:14:42.473Z,7.15
2023-03-29T19:20:04.921Z,7.04
2023-03-29T19:25:26.795Z,7.01
2023-03-29T19:30:48.865Z,7.00
2023-03-29T19:36:10.788Z,6.91
2023-03-29T19:41:33.003Z,6.94
2023-03-29T19:46:54.904Z,6.96
2023-03-29T19:52:16.842Z,6.93
2023-03-29T19:57:38.682Z,6.87
2023-03-29T20:03:00.589Z,6.87
2023-03-29T20:08:26.072Z,6.79
2023-03-29T20:13:47.924Z,6.75
2023-03-29T20:19:09.820Z,6.62
2023-03-29T20:24:31.686Z,6.37
2023-03-29T20:29:53.522Z,6.31
2023-03-29T20:35:15.499Z,6.23
2023-03-29T20:40:37.777Z,6.03
2023-03-29T20:45:59.649Z,5.94
2023-03-29T20:51:23.641Z,5.81
2023-03-29T20:56:45.597Z,5.76
2023-03-29T21:02:08.431Z,5.64
2023-03-29T21:07:30.349Z,5.42
2023-03-29T21:12:52.728Z,5.38
2023-03-29T21:18:14.566Z,5.17
2023-03-29T21:23:37.121Z,5.01
2023-03-29T21:28:59.054Z,4.97
2023-03-29T21:34:20.976Z,4.84
2023-03-29T21:39:42.846Z,4.81
2023-03-29T21:45:05.082Z,4.81
2023-03-29T21:50:26.991Z,4.78
2023-03-29T21:55:49.340Z,4.79
2023-03-29T22:01:11.320Z,4.84
2023-03-29T22:06:33.495Z,4.77
2023-03-29T22:11:55.480Z,4.69
2023-03-29T22:17:17.435Z,4.63
2023-03-29T22:22:42.940Z,4.77
2023-03-29T22:28:04.780Z,4.58
2023-03-29T22:33:26.660Z,4.57
2023-03-29T22:38:50.316Z,4.57
2023-03-29T22:44:12.206Z,4.63
2023-03-29T22:49:34.367Z,4.58
2023-03-29T22:54:56.216Z,4.66
2023-03-29T23:00:18.536Z,4.65
2023-03-29T23:05:40.395Z,4.66
2023-03-29T23:11:03.370Z,4.72
2023-03-29T23:16:25.502Z,4.67
2023-03-29T23:21:47.461Z,4.68
2023-03-29T23:27:09.696Z,4.67
2023-03-29T23:32:31.627Z,4.77
2023-03-29T23:37:53.566Z,4.89
2023-03-29T23:43:15.410Z,4.95
2023-03-29T23:48:37.886Z,5.02
2023-03-29T23:53:59.864Z,5.07
2023-03-29T23:59:21.888Z,5.04
